• Join FlightAware (Why Join?)
  • Login
  • US Flag 
10:48PM EDT


 

Airport Tracker/Info


-or-


 

Live Flight TrackerFlight Track Log ✈ BOE2 ✈ 22-Apr-2014 ✈ KSLC - KBFI

Flight Track Log - Related Links

Times and Time Zones

All times are in EDT time to prevent confusion due to time zone crossing. See the BOE2 flight status page for this flight to view local times or setup timezone preferences in your user account.

Time Position Orientation Groundspeed Altitude Reporting Facility
EDT Latitude Longitude Course Direction KTS MPH feet Rate Location/Type
05:03PM 40.7999 -111.9984 174° South 81 93 4,600  Level FlightAware ADS-B (KBTF)
05:03PM 40.7898 -111.9971 176° South 132 152 5,100 2,880 Climbing FlightAware ADS-B (KBTF)
05:03PM 40.7797 -111.9963 177° South 131 151 6,100 2,460 Climbing FlightAware ADS-B (KBTF)
05:03PM 40.7663 -112.0037 228° Southwest 176 203 6,600 1,560 Climbing FlightAware ADS-B (KBTF)
05:04PM 40.7607 -112.0286 270° West 238 274 7,200 1,920 Climbing FlightAware ADS-B (KBTF)
05:04PM 40.7687 -112.0576 298° West 275 316 7,900 2,400 Climbing FlightAware ADS-B (KBTF)
05:04PM 40.7745 -112.0717 299° West 284 327 8,600 2,880 Climbing FlightAware ADS-B
05:05PM 40.7900 -112.1081 298° West 281 323 9,500 3,420 Climbing FlightAware ADS-B (KBTF)
05:05PM 40.8094 -112.1537 300° West 275 316 11,400 3,300 Climbing FlightAware ADS-B
05:06PM 40.8343 -112.2066 308° West 291 335 13,200 2,580 Climbing FlightAware ADS-B (KBTF)
05:06PM 40.8453 -112.2203 322° Northwest 320 368 13,500 2,220 Climbing FlightAware ADS-B
05:06PM 40.8868 -112.2549 330° Northwest 348 400 14,800 2,580 Climbing FlightAware ADS-B
05:07PM 40.9349 -112.2918 330° Northwest 367 422 16,300 2,460 Climbing FlightAware ADS-B
05:07PM 40.9505 -112.3036 329° Northwest 372 428 16,600 1,800 Climbing FlightAware ADS-B (KBTF)
05:08PM 40.9980 -112.3398 330° Northwest 414 476 17,500 1,620 Climbing FlightAware ADS-B
05:08PM 41.0389 -112.3712 329° Northwest 429 494 18,100 2,340 Climbing FlightAware ADS-B (KBTF)
05:09PM 41.1076 -112.4235 330° Northwest 443 510 20,000 2,580 Climbing FlightAware ADS-B (KBTF)
05:09PM 41.1835 -112.4825 321° Northwest 455 524 21,600 2,460 Climbing FlightAware ADS-B (KBTF)
05:10PM 41.2299 -112.5447 311° West 454 522 23,100 2,700 Climbing FlightAware ADS-B
05:11PM 41.2863 -112.6319 311° West 459 528 25,100 3,660 Climbing FlightAware ADS-B
05:11PM 41.3319 -112.7009 311° West 432 497 27,700 3,600 Climbing FlightAware ADS-B
05:12PM 41.3772 -112.7703 310° West 432 497 28,900 2,040 Climbing FlightAware ADS-B (KBTF)
05:12PM 41.4022 -112.8087 311° West 444 511 29,900 1,620 Climbing FlightAware ADS-B
05:13PM 41.4585 -112.8943 311° West 448 516 30,600 1,320 Climbing FlightAware ADS-B (KBTF)
05:13PM 41.5103 -112.9729 311° West 462 532 31,400 960 Climbing FlightAware ADS-B (KBTF)
05:14PM 41.5594 -113.0479 311° West 481 554 31,800 1,680 Climbing FlightAware ADS-B
05:15PM 41.6089 -113.1229 311° West 473 544 33,400 1,920 Climbing FlightAware ADS-B
05:15PM 41.6482 -113.1832 311° West 483 556 34,000 1,080 Climbing FlightAware ADS-B
05:16PM 41.7081 -113.2756 311° West 496 571 34,600 780 Climbing FlightAware ADS-B (KBTF)
05:16PM 41.7664 -113.3652 311° West 486 559 35,000 420 Climbing FlightAware ADS-B
05:17PM 41.8077 -113.4289 311° West 479 551 35,100 480 Climbing FlightAware ADS-B
05:17PM 41.8541 -113.5011 311° West 490 564 35,500 660 Climbing FlightAware ADS-B
05:18PM 41.8988 -113.5709 311° West 503 579 35,800 600 Climbing FlightAware ADS-B
05:18PM 41.9466 -113.6457 311° West 511 588 36,100 480 Climbing FlightAware ADS-B
05:19PM 42.0034 -113.7350 311° West 523 602 36,400 480 Climbing FlightAware ADS-B
05:19PM 42.0195 -113.7601 311° West 525 604 36,500 600 Climbing FlightAware ADS-B
05:19PM 42.0484 -113.8051 311° West 528 608 36,700 600 Climbing FlightAware ADS-B
05:20PM 42.0816 -113.8571 311° West 533 613 36,900 300 Climbing FlightAware ADS-B
05:20PM 42.1321 -113.9361 310° West 529 609 37,000 60 Climbing FlightAware ADS-B (KBTF)
05:21PM 42.2091 -114.0569 310° West 518 596 37,000 -300 Level FlightAware ADS-B (KBTF)
05:22PM 42.2707 -114.1549 310° West 509 586 36,600 -1,260 Descending FlightAware ADS-B (KBTF)
05:22PM 42.3294 -114.2485 309° West 512 589 35,400 -2,040 Descending FlightAware ADS-B (KBTF)
05:23PM 42.3864 -114.3398 310° West 525 604 34,100 -1,140 Descending FlightAware ADS-B (KBTF)
05:24PM 42.4501 -114.4406 314° West 535 616 34,000 -120 Descending FlightAware ADS-B (KBTF)
05:24PM 42.5219 -114.5185 329° Northwest 547 629 34,000  Level FlightAware ADS-B (KBTF)
05:25PM 42.6054 -114.5797 332° Northwest 549 632 34,000  Level FlightAware ADS-B (KBTF)
05:26PM 42.7673 -114.6968 332° Northwest 549 632 34,000  Level FlightAware ADS-B (KBTF)
05:27PM 42.8373 -114.7480 332° Northwest 547 629 34,000  Level FlightAware ADS-B (KBTF)
05:28PM 42.9600 -114.8375 332° Northwest 551 634 34,000  Level FlightAware ADS-B (KBTF)
05:28PM 43.0268 -114.8865 332° Northwest 550 633 34,000  Level FlightAware ADS-B (KBTF)
05:29PM 43.1864 -115.0039 332° Northwest 547 629 34,000  Level Salt Lake Center
05:30PM 43.3183 -115.1028 331° Northwest 542 624 34,000  Level Salt Lake Center
05:31PM 43.4558 -115.2039 332° Northwest 558 642 34,000  Level Salt Lake Center
05:32PM 43.5919 -115.3050 332° Northwest 558 642 34,000  Level Salt Lake Center
05:33PM 43.7294 -115.4094 331° Northwest 562 647 34,000  Level Salt Lake Center
05:34PM 43.8678 -115.5125 332° Northwest 565 650 34,000  Level Salt Lake Center
05:35PM 44.0044 -115.6167 331° Northwest 564 649 34,000  Level Salt Lake Center
05:36PM 44.1689 -115.7425 331° Northwest 564 649 34,000  Level Salt Lake Center
05:38PM 44.3050 -115.8467 331° Northwest 563 648 34,000  Level Salt Lake Center
05:39PM 44.4403 -115.9528 331° Northwest 564 649 34,000  Level Salt Lake Center
05:40PM 44.5725 -116.0542 331° Northwest 564 649 34,000  Level Salt Lake Center
05:41PM 44.7356 -116.1819 331° Northwest 565 650 34,000  Level Salt Lake Center
05:42PM 44.8586 -116.3117 323° Northwest 556 640 34,000  Level Seattle Center
05:43PM 44.9756 -116.4486 320° Northwest 552 635 34,000  Level Seattle Center
05:44PM 45.0933 -116.5861 321° Northwest 550 633 34,000  Level Seattle Center
05:45PM 45.2103 -116.7239 320° Northwest 549 632 34,000 240 Level Seattle Center
05:46PM 45.3236 -116.8572 320° Northwest 534 615 34,600 780 Climbing Seattle Center
05:47PM 45.4331 -116.9878 320° Northwest 516 594 35,600 960 Climbing Seattle Center
05:48PM 45.5406 -117.1161 320° Northwest 510 587 36,600 840 Climbing Seattle Center
05:49PM 45.6689 -117.2700 320° Northwest 505 581 37,400 600 Climbing Seattle Center
05:50PM 45.7694 -117.3922 320° Northwest 503 579 37,900 240 Climbing Seattle Center
05:51PM 45.8769 -117.5183 321° Northwest 502 578 38,000  Climbing Seattle Center
05:52PM 46.0175 -117.5672 346° North 537 618 37,900  Descending Seattle Center
05:53PM 46.1608 -117.5803 356° North 530 610 38,000  Climbing Seattle Center
05:54PM 46.2833 -117.6764 332° Northwest 509 586 37,900 -660 Descending Seattle Center
05:55PM 46.3831 -117.8189 315° West 505 581 36,700 -2,520 Descending Seattle Center
05:56PM 46.4703 -117.9750 309° West 500 575 32,800 -3,840 Descending Seattle Center
05:57PM 46.5597 -118.1369 309° West 513 590 28,900 -3,360 Descending Seattle Center
05:58PM 46.6533 -118.3067 309° West 534 615 26,000 -1,500 Descending Seattle Center
05:59PM 46.7531 -118.4847 309° West 559 643 25,900  Descending Seattle Center
06:04PM 47.3801 -119.2880 356° North 560 644 26,000  Climbing FlightAware ADS-B
06:05PM 47.4749 -119.2960 357° North 558 642 26,000 -60 Level FlightAware ADS-B
06:06PM 47.6317 -119.2964 357° North 561 646 25,900 -240 Descending Seattle Center
06:07PM 47.7694 -119.1958 26° Northeast 564 649 25,500 -240 Descending Seattle Center
06:08PM 47.8750 -119.0261 47° Northeast 562 647 25,500 -1,200 Level Seattle Center
06:09PM 47.9381 -118.8208 65° Northeast 558 642 23,100 -3,300 Descending Seattle Center
06:10PM 47.9875 -118.6369 68° East 516 594 18,800 -4,380 Descending Seattle Center
06:11PM 48.0042 -118.4600 82° East 397 457 14,200 -3,000 Descending Seattle Center
06:12PM 47.9492 -118.3736 134° Southeast 302 348 12,800 -600 Descending Seattle Center
06:13PM 47.9081 -118.4586 234° Southwest 289 333 13,000 60 Climbing Seattle Center
06:14PM 47.9086 -118.5769 270° West 288 331 13,000  Level Seattle Center
06:15PM 47.9147 -118.6903 275° West 278 320 13,000  Level Seattle Center
06:16PM 47.9411 -118.7819 293° West 223 257 13,000 -600 Level Seattle Center
06:17PM 47.9617 -118.8564 292° West 196 226 11,900  Descending Seattle Center
06:18PM 47.9769 -118.9564 283° West 257 296 13,000 1,320 Climbing Seattle Center
06:20PM 47.9497 -119.2575 260° West 399 459 16,000 960 Climbing Seattle Center
06:21PM 47.9458 -119.4328 268° West 419 482 16,000  Level Seattle Center
06:27PM 47.8972 -120.4180 266° West 416 479 16,000  Level FlightAware ADS-B
06:27PM 47.8949 -120.4640 265° West 414 476 16,000  Level FlightAware ADS-B
06:28PM 47.8899 -120.5570 266° West 415 478 16,000  Level FlightAware ADS-B
06:28PM 47.8853 -120.6460 265° West 405 466 16,000  Level FlightAware ADS-B
06:29PM 47.8804 -120.7310 265° West 402 463 16,000 60 Level FlightAware ADS-B
06:29PM 47.8773 -120.7930 266° West 413 475 16,100  Climbing FlightAware ADS-B
06:30PM 47.8760 -120.8800 271° West 410 472 16,000 -600 Descending FlightAware ADS-B
06:30PM 47.8774 -120.9650 271° West 404 465 15,500 -960 Descending FlightAware ADS-B
06:31PM 47.8788 -121.0450 271° West 394 453 15,100 -1,020 Descending FlightAware ADS-B
06:31PM 47.8800 -121.1270 271° West 390 449 14,500 -1,200 Descending FlightAware ADS-B
06:32PM 47.8811 -121.2090 271° West 385 443 13,900 -1,020 Descending FlightAware ADS-B
06:32PM 47.8820 -121.2880 271° West 376 433 13,500 -1,320 Descending FlightAware ADS-B
06:33PM 47.8829 -121.3670 271° West 366 421 12,600 -1,500 Descending FlightAware ADS-B
06:33PM 47.8838 -121.4410 271° West 340 391 12,000 -900 Descending FlightAware ADS-B
06:34PM 47.8845 -121.5080 271° West 310 357 11,700 -540 Descending FlightAware ADS-B
06:34PM 47.8851 -121.5700 271° West 284 327 11,500 -360 Descending FlightAware ADS-B
06:34PM 47.8853 -121.5825 271° West 280 322 11,500 -300 Level FlightAware ADS-B (CYVR)
06:35PM 47.8855 -121.6080 271° West 268 308 11,400 -720 Descending FlightAware ADS-B
06:35PM 47.8859 -121.6449 271° West 263 303 11,100 -1,020 Descending FlightAware ADS-B (CYVR)
06:35PM 47.8861 -121.6620 271° West 261 300 10,900 -1,320 Descending FlightAware ADS-B
06:35PM 47.8859 -121.6780 266° West 260 299 10,700 -1,740 Descending FlightAware ADS-B
06:35PM 47.8848 -121.6870 258° West 260 299 10,500 -2,040 Descending FlightAware ADS-B
06:35PM 47.8833 -121.6950 253° West 259 298 10,400 -1,380 Descending FlightAware ADS-B (CYVR)
06:36PM 47.8813 -121.7030 247° West 259 298 10,300 -1,380 Descending FlightAware ADS-B
06:36PM 47.8755 -121.7240 250° West 263 303 10,000 -1,620 Descending FlightAware ADS-B
06:36PM 47.8749 -121.7267 253° West 262 302 9,900 -2,280 Descending FlightAware ADS-B (CYVR)
06:36PM 47.8724 -121.7390 254° West 261 300 9,700 -2,760 Descending FlightAware ADS-B
06:36PM 47.8710 -121.7470 255° West 262 302 9,400 -3,720 Descending FlightAware ADS-B
06:36PM 47.8676 -121.7668 256° West 267 307 8,600 -3,600 Descending FlightAware ADS-B (KPAE)
06:36PM 47.8665 -121.7740 256° West 267 307 8,500 -2,880 Descending FlightAware ADS-B
06:36PM 47.8617 -121.8030 257° West 267 307 7,700 -2,640 Descending FlightAware ADS-B
06:37PM 47.8573 -121.8310 257° West 260 299 7,100 -2,340 Descending FlightAware ADS-B
06:37PM 47.8571 -121.8321 257° West 257 296 6,900 -2,400 Descending FlightAware ADS-B (KPAE)
06:37PM 47.8549 -121.8470 258° West 256 295 6,700 -3,180 Descending FlightAware ADS-B
06:37PM 47.8521 -121.8664 257° West 253 291 6,000 -2,520 Descending FlightAware ADS-B (KPAE)
06:37PM 47.8506 -121.8760 257° West 253 291 6,000 -1,380 Level FlightAware ADS-B
06:37PM 47.8491 -121.8840 253° West 253 291 5,800 -2,580 Descending FlightAware ADS-B
06:37PM 47.8455 -121.8990 250° West 253 291 5,400 -2,400 Descending FlightAware ADS-B
06:38PM 47.8433 -121.9082 249° West 253 291 5,200 -2,400 Descending FlightAware ADS-B (KPAE)
06:38PM 47.8391 -121.9240 248° West 252 290 4,800 -2,880 Descending FlightAware ADS-B
06:38PM 47.8387 -121.9253 249° West 249 287 4,400 -2,340 Descending FlightAware ADS-B (KPAE)
06:38PM 47.8339 -121.9440 249° West 249 287 4,300 -2,100 Descending FlightAware ADS-B
06:38PM 47.8275 -121.9680 249° West 247 284 3,700 -2,520 Descending FlightAware ADS-B
06:38PM 47.8267 -121.9710 249° West 246 283 3,600 -1,200 Descending FlightAware ADS-B (KPAE)
06:38PM 47.8212 -121.9920 249° West 245 282 3,400 -900 Descending FlightAware ADS-B
06:39PM 47.8267 -121.9710 249° West 243 280 3,300 -1,020 Descending FlightAware ADS-B (KPAE)
06:39PM 47.8141 -122.0190 249° West 240 276 3,100 -660 Descending FlightAware ADS-B
06:39PM 47.8131 -122.0234 249° West 239 275 3,100 -420 Level FlightAware ADS-B (KPAE)
06:39PM 47.8075 -122.0450 249° West 241 277 3,000 -300 Descending FlightAware ADS-B
06:39PM 47.8026 -122.0633 249° West 240 276 3,000  Level FlightAware ADS-B (KPAE)
06:39PM 47.8014 -122.0680 249° West 240 276 3,000  Level FlightAware ADS-B
06:39PM 47.7984 -122.0800 251° West 239 275 3,000  Level FlightAware ADS-B
06:40PM 47.7967 -122.0878 254° West 240 276 3,000  Level FlightAware ADS-B (KPAE)
06:40PM 47.7942 -122.1000 254° West 240 276 3,000  Level FlightAware ADS-B
06:40PM 47.7908 -122.1190 255° West 241 277 3,000  Level FlightAware ADS-B
06:40PM 47.7890 -122.1278 254° West 241 277 3,000  Level FlightAware ADS-B (KPAE)
06:40PM 47.7864 -122.1420 254° West 241 277 3,000  Level FlightAware ADS-B
06:40PM 47.7832 -122.1577 254° West 242 278 3,000  Level FlightAware ADS-B (KPAE)
06:40PM 47.7815 -122.1660 253° West 242 278 3,000  Level FlightAware ADS-B
06:40PM 47.7783 -122.1820 253° West 241 277 3,000  Level FlightAware ADS-B
06:41PM 47.7780 -122.1831 253° West 239 275 3,000  Level FlightAware ADS-B (KPAE)
06:41PM 47.7719 -122.2130 253° West 238 274 3,000  Level FlightAware ADS-B
06:41PM 47.7698 -122.2229 254° West 239 275 3,000  Level FlightAware ADS-B (KPAE)
06:41PM 47.7639 -122.2530 254° West 235 270 3,000  Level FlightAware ADS-B (KPAE)
06:41PM 47.7627 -122.2590 254° West 237 273 3,000  Level FlightAware ADS-B
06:42PM 47.7577 -122.2856 254° West 231 266 3,000  Level FlightAware ADS-B (KPAE)
06:42PM 47.7544 -122.3030 254° West 223 257 3,000  Level FlightAware ADS-B
06:42PM 47.7533 -122.3081 254° West 217 250 3,000 -420 Level FlightAware ADS-B (KPAE)
06:42PM 47.7500 -122.3250 254° West 213 245 2,900 -900 Descending FlightAware ADS-B
06:42PM 47.7470 -122.3413 255° West 209 241 2,700 -1,200 Descending FlightAware ADS-B (KPAE)
06:42PM 47.7462 -122.3460 255° West 210 242 2,600 -900 Descending FlightAware ADS-B
06:43PM 47.7401 -122.3800 255° West 211 243 2,300 -300 Descending FlightAware ADS-B
06:44PM 47.7067 -122.4400 175° South 183 211 2,200 -60 Descending FlightAware ADS-B
06:44PM 47.6798 -122.4290 175° South 183 211 2,200  Level FlightAware ADS-B
06:45PM 47.6705 -122.4220 151° Southeast 188 216 2,200 180 Level FlightAware ADS-B
06:45PM 47.6578 -122.4110 150° Southeast 181 208 2,300 180 Climbing FlightAware ADS-B
06:45PM 47.6478 -122.4020 149° Southeast 169 194 2,300 -300 Level FlightAware ADS-B
06:45PM 47.6417 -122.3970 149° Southeast 156 180 2,200 -240 Descending FlightAware ADS-B
06:46PM 47.6322 -122.3890 150° Southeast 146 168 2,200 -360 Level FlightAware ADS-B
06:46PM 47.6221 -122.3800 151° Southeast 140 161 2,000 -780 Descending FlightAware ADS-B
06:46PM 47.6134 -122.3730 150° Southeast 140 161 1,800 -840 Descending FlightAware ADS-B
06:46PM 47.6025 -122.3640 150° Southeast 135 155 1,500 -840 Descending FlightAware ADS-B
06:47PM 47.5929 -122.3550 150° Southeast 136 157 1,300 -780 Descending FlightAware ADS-B
06:48PM 47.5656 -122.3336 150° Southeast 131 151 600 7,500 Descending Seattle Center
06:49PM 47.5369 -122.3083 149° Southeast 132 152 16,000 15,120 Climbing Seattle Center